createdAt,value
2018-01-28T00:01:10.893Z,1.45
2018-01-28T00:03:46.765Z,0.90
2018-01-28T00:06:24.008Z,0.70
2018-01-28T00:08:58.876Z,0.88
2018-01-28T00:11:33.453Z,1.17
2018-01-28T00:14:08.191Z,0.73
2018-01-28T00:16:43.377Z,1.10
2018-01-28T00:19:17.172Z,1.52
2018-01-28T00:21:51.071Z,1.23
2018-01-28T00:24:24.752Z,1.85
2018-01-28T00:26:59.734Z,1.52
2018-01-28T00:29:33.327Z,2.35
2018-01-28T00:32:08.118Z,1.25
2018-01-28T00:34:42.880Z,1.30
2018-01-28T00:37:19.466Z,3.62
2018-01-28T00:39:56.451Z,1.25
2018-01-28T00:42:31.939Z,1.55
2018-01-28T00:45:06.488Z,1.98
2018-01-28T00:47:43.711Z,1.60
2018-01-28T00:50:18.320Z,0.50
2018-01-28T00:52:52.185Z,2.15
2018-01-28T00:55:26.549Z,3.05
2018-01-28T00:58:00.316Z,1.70
2018-01-28T01:00:34.462Z,1.20
2018-01-28T01:03:08.316Z,1.45
2018-01-28T01:05:42.490Z,1.67
2018-01-28T01:08:16.046Z,1.00
2018-01-28T01:10:49.806Z,0.82
2018-01-28T01:13:24.022Z,0.95
2018-01-28T01:15:58.015Z,0.75
2018-01-28T01:18:31.707Z,2.20
2018-01-28T01:21:07.080Z,0.70
2018-01-28T01:23:40.768Z,2.35
2018-01-28T01:26:14.504Z,2.08
2018-01-28T01:28:48.168Z,2.10
2018-01-28T01:31:23.674Z,1.75
2018-01-28T01:33:58.719Z,1.70
2018-01-28T01:36:32.483Z,0.75
2018-01-28T01:39:06.261Z,1.85
2018-01-28T01:41:40.034Z,0.35
2018-01-28T01:44:13.591Z,1.35
2018-01-28T01:46:47.316Z,1.23
2018-01-28T01:49:32.886Z,0.85
2018-01-28T01:52:06.681Z,0.88
2018-01-28T01:54:40.379Z,1.55
2018-01-28T01:57:14.921Z,0.30
2018-01-28T01:59:48.709Z,0.80
2018-01-28T02:02:23.684Z,0.40
2018-01-28T02:04:57.404Z,1.92
2018-01-28T02:07:31.154Z,0.88
2018-01-28T02:10:04.943Z,2.00
2018-01-28T02:12:39.579Z,0.85
2018-01-28T02:15:13.265Z,0.75
2018-01-28T02:17:46.987Z,1.42
2018-01-28T02:20:21.009Z,1.55
2018-01-28T02:22:55.978Z,1.50
2018-01-28T02:25:30.394Z,1.40
2018-01-28T02:28:04.216Z,1.23
2018-01-28T02:30:38.042Z,0.60
2018-01-28T02:33:11.967Z,1.12
2018-01-28T02:35:46.570Z,1.02
2018-01-28T02:38:20.907Z,2.33
2018-01-28T02:40:54.597Z,0.55
2018-01-28T02:43:28.624Z,0.80
2018-01-28T02:46:02.837Z,0.73
2018-01-28T02:48:36.630Z,1.30
2018-01-28T02:51:10.561Z,0.90
2018-01-28T02:53:45.184Z,1.30
2018-01-28T02:56:19.121Z,1.23
2018-01-28T02:58:52.800Z,0.95
2018-01-28T03:01:26.643Z,0.80
2018-01-28T03:04:00.650Z,0.40
2018-01-28T03:06:35.236Z,0.77
2018-01-28T03:09:09.050Z,0.82
2018-01-28T03:11:42.895Z,1.60
2018-01-28T03:14:16.571Z,0.85
2018-01-28T03:16:51.916Z,1.25
2018-01-28T03:19:25.682Z,1.00
2018-01-28T03:22:02.319Z,1.30
2018-01-28T03:24:36.990Z,0.77
2018-01-28T03:27:11.358Z,0.88
2018-01-28T03:29:46.616Z,1.05
2018-01-28T03:32:21.132Z,1.55
2018-01-28T03:34:56.088Z,1.05
2018-01-28T03:37:30.517Z,1.15
2018-01-28T03:40:04.268Z,2.60
2018-01-28T03:42:39.239Z,1.75
2018-01-28T03:45:13.015Z,0.95
2018-01-28T03:47:46.781Z,0.60
2018-01-28T03:50:21.630Z,1.20
2018-01-28T03:52:55.450Z,0.98
2018-01-28T03:55:29.211Z,1.80
2018-01-28T03:58:03.313Z,1.50
2018-01-28T04:00:37.404Z,2.12
2018-01-28T04:03:13.382Z,1.77
2018-01-28T04:05:47.197Z,1.65
2018-01-28T04:08:21.969Z,1.10
2018-01-28T04:10:55.752Z,1.50
2018-01-28T04:13:29.543Z,1.45
2018-01-28T04:16:04.462Z,1.27
2018-01-28T04:18:39.622Z,1.02
2018-01-28T04:21:13.348Z,1.73
2018-01-28T04:23:47.133Z,3.47
2018-01-28T04:26:20.969Z,3.00
2018-01-28T04:28:55.051Z,2.70
2018-01-28T04:31:29.662Z,3.40
2018-01-28T04:34:04.199Z,2.90
2018-01-28T04:36:38.033Z,2.85
2018-01-28T04:39:12.734Z,0.85
2018-01-28T04:41:47.595Z,2.78
2018-01-28T04:44:21.471Z,2.70
2018-01-28T04:46:55.287Z,0.60
2018-01-28T04:49:29.943Z,1.95
2018-01-28T04:52:04.906Z,3.05
2018-01-28T04:54:38.889Z,2.85
2018-01-28T04:57:14.169Z,3.20
2018-01-28T04:59:48.013Z,2.85
2018-01-28T05:02:22.647Z,1.42
2018-01-28T05:04:56.539Z,1.62
2018-01-28T05:07:31.241Z,2.05
2018-01-28T05:10:05.143Z,2.72
2018-01-28T05:12:38.862Z,2.45
2018-01-28T05:15:12.616Z,3.85
2018-01-28T05:17:46.440Z,1.20
2018-01-28T05:20:20.214Z,2.70
2018-01-28T05:22:53.975Z,2.65
2018-01-28T05:25:27.828Z,1.98
2018-01-28T05:28:01.641Z,2.33
2018-01-28T05:30:36.377Z,1.58
2018-01-28T05:33:10.170Z,3.03
2018-01-28T05:35:45.086Z,2.17
2018-01-28T05:38:18.819Z,2.47
2018-01-28T05:40:52.628Z,4.00
2018-01-28T05:43:27.322Z,3.42
2018-01-28T05:46:01.036Z,5.87
2018-01-28T05:48:34.808Z,5.87
2018-01-28T05:51:08.484Z,2.03
2018-01-28T05:53:42.216Z,4.15
2018-01-28T05:56:16.980Z,5.30
2018-01-28T05:58:51.110Z,4.65
2018-01-28T06:01:26.584Z,2.85
2018-01-28T06:04:01.311Z,2.35
2018-01-28T06:06:35.032Z,2.55
2018-01-28T06:09:08.925Z,5.50
2018-01-28T06:11:42.765Z,3.42
2018-01-28T06:14:17.264Z,2.28
2018-01-28T06:16:52.057Z,3.75
2018-01-28T06:19:29.134Z,2.47
2018-01-28T06:22:04.652Z,6.40
2018-01-28T06:24:39.386Z,4.80
2018-01-28T06:27:13.705Z,6.28
2018-01-28T06:29:47.547Z,4.07
2018-01-28T06:32:22.863Z,2.90
2018-01-28T06:34:57.531Z,3.97
2018-01-28T06:37:32.290Z,8.48
2018-01-28T06:40:05.994Z,4.57
2018-01-28T06:42:39.714Z,9.10
2018-01-28T06:45:13.740Z,5.70
2018-01-28T06:47:49.411Z,3.12
2018-01-28T06:50:23.317Z,2.15
2018-01-28T06:52:57.232Z,5.10
2018-01-28T06:55:32.986Z,4.30
2018-01-28T06:58:08.528Z,2.95
2018-01-28T07:00:42.249Z,7.43
2018-01-28T07:03:19.780Z,3.90
2018-01-28T07:05:53.612Z,6.20
2018-01-28T07:08:29.108Z,3.62
2018-01-28T07:11:03.500Z,3.92
2018-01-28T07:13:37.410Z,6.90
2018-01-28T07:16:11.114Z,4.55
2018-01-28T07:18:45.264Z,5.00
2018-01-28T07:21:19.136Z,5.55
2018-01-28T07:23:53.071Z,5.75
2018-01-28T07:26:26.825Z,4.10
2018-01-28T07:29:00.592Z,4.22
2018-01-28T07:31:34.375Z,3.00
2018-01-28T07:34:08.163Z,3.42
2018-01-28T07:36:41.868Z,2.55
2018-01-28T07:39:15.460Z,6.35
2018-01-28T07:41:50.932Z,4.87
2018-01-28T07:44:24.726Z,5.75
2018-01-28T07:46:59.167Z,5.07
2018-01-28T07:49:32.730Z,2.42
2018-01-28T07:52:06.883Z,3.15
2018-01-28T07:54:40.671Z,4.05
2018-01-28T07:57:14.479Z,2.70
2018-01-28T07:59:49.456Z,5.15
2018-01-28T08:02:25.061Z,6.25
2018-01-28T08:04:58.815Z,2.15
2018-01-28T08:07:32.452Z,2.03
2018-01-28T08:10:22.962Z,4.68
2018-01-28T08:13:11.578Z,4.55
2018-01-28T08:15:45.444Z,0.95
2018-01-28T08:18:20.837Z,4.20
2018-01-28T08:20:54.660Z,3.50
2018-01-28T08:23:29.276Z,4.37
2018-01-28T08:26:05.323Z,3.60
2018-01-28T08:28:43.867Z,5.57
2018-01-28T08:31:18.543Z,4.30
2018-01-28T08:33:54.183Z,3.53
2018-01-28T08:36:27.745Z,4.30
2018-01-28T08:39:06.825Z,5.07
2018-01-28T08:41:41.492Z,4.97
2018-01-28T08:44:15.279Z,4.75
2018-01-28T08:46:51.518Z,1.27
2018-01-28T08:49:25.410Z,5.85
2018-01-28T08:51:59.504Z,8.52
2018-01-28T08:54:33.760Z,4.32
2018-01-28T08:57:07.647Z,5.45
2018-01-28T08:59:41.467Z,4.65
2018-01-28T09:02:15.256Z,7.85
2018-01-28T09:04:48.939Z,2.50
2018-01-28T09:07:22.849Z,3.10
2018-01-28T09:09:56.655Z,3.25
2018-01-28T09:12:31.707Z,2.97
2018-01-28T09:15:06.591Z,3.28
2018-01-28T09:17:40.464Z,1.70
2018-01-28T09:20:14.987Z,4.62
2018-01-28T09:22:48.780Z,5.75
2018-01-28T09:25:23.261Z,4.95
2018-01-28T09:27:57.491Z,1.45
2018-01-28T09:30:31.124Z,6.28
2018-01-28T09:33:05.084Z,2.87
2018-01-28T09:35:38.906Z,3.42
2018-01-28T09:38:12.597Z,6.72
2018-01-28T09:40:47.144Z,4.20
2018-01-28T09:43:21.294Z,3.92
2018-01-28T09:45:56.012Z,4.28
2018-01-28T09:48:31.736Z,3.97
2018-01-28T09:51:09.755Z,6.12
2018-01-28T09:53:46.048Z,5.05
2018-01-28T09:56:21.647Z,3.72
2018-01-28T09:58:57.406Z,4.25
2018-01-28T10:01:33.846Z,3.03
2018-01-28T10:04:08.739Z,3.80
2018-01-28T10:06:44.194Z,2.97
2018-01-28T10:09:17.909Z,5.87
2018-01-28T10:11:53.507Z,8.88
2018-01-28T10:14:28.229Z,3.17
2018-01-28T10:17:01.988Z,4.97
2018-01-28T10:19:36.957Z,3.72
2018-01-28T10:22:10.576Z,7.07
2018-01-28T10:24:44.475Z,4.28
2018-01-28T10:27:18.248Z,5.10
2018-01-28T10:29:55.607Z,3.05
2018-01-28T10:32:30.201Z,8.18
2018-01-28T10:35:12.208Z,3.58
2018-01-28T10:37:47.644Z,7.62
2018-01-28T10:40:21.295Z,4.40
2018-01-28T10:42:55.610Z,3.53
2018-01-28T10:45:29.466Z,7.60
2018-01-28T10:48:04.006Z,2.37
2018-01-28T10:50:40.532Z,5.93
2018-01-28T10:53:17.914Z,5.22
2018-01-28T10:55:52.950Z,5.65
2018-01-28T10:58:31.824Z,4.87
2018-01-28T11:03:47.213Z,7.75
2018-01-28T11:06:27.375Z,3.92
2018-01-28T11:09:03.562Z,0.77
2018-01-28T11:11:39.621Z,3.03
2018-01-28T11:14:13.563Z,5.22
2018-01-28T11:16:50.102Z,3.00
2018-01-28T11:19:24.218Z,3.83
2018-01-28T11:21:58.558Z,6.10
2018-01-28T11:24:32.280Z,5.85
2018-01-28T11:27:06.041Z,2.75
2018-01-28T11:29:41.221Z,2.85
2018-01-28T11:32:16.395Z,2.83
2018-01-28T11:34:50.093Z,2.70
2018-01-28T11:37:25.900Z,1.35
2018-01-28T11:40:05.639Z,2.03
2018-01-28T11:42:41.301Z,2.72
2018-01-28T11:45:17.544Z,3.58
2018-01-28T11:50:40.348Z,3.55
2018-01-28T11:53:16.967Z,3.35
2018-01-28T11:55:58.577Z,1.75
2018-01-28T11:58:35.792Z,4.85
2018-01-28T12:01:13.694Z,4.50
2018-01-28T12:03:52.421Z,1.87
2018-01-28T12:06:26.858Z,1.83
2018-01-28T12:09:00.568Z,3.50
2018-01-28T12:11:34.323Z,1.50
2018-01-28T12:14:08.901Z,3.35
2018-01-28T12:16:42.493Z,3.60
2018-01-28T12:19:17.363Z,3.72
2018-01-28T12:21:53.439Z,2.10
2018-01-28T12:24:27.266Z,2.10
2018-01-28T12:27:01.155Z,2.87
2018-01-28T12:29:35.936Z,1.10
2018-01-28T12:32:10.574Z,4.40
2018-01-28T12:34:45.961Z,3.90
2018-01-28T12:37:22.659Z,5.68
2018-01-28T12:39:59.468Z,6.45
2018-01-28T12:42:33.534Z,1.95
2018-01-28T12:45:10.118Z,2.65
2018-01-28T12:47:46.890Z,6.03
2018-01-28T12:50:25.503Z,3.78
2018-01-28T12:53:01.540Z,4.25
2018-01-28T12:55:35.584Z,3.37
2018-01-28T12:58:11.333Z,2.62
2018-01-28T13:00:52.396Z,2.67
2018-01-28T13:03:36.434Z,3.80
2018-01-28T13:06:15.081Z,6.53
2018-01-28T13:08:53.847Z,5.12
2018-01-28T13:11:34.262Z,6.87
2018-01-28T13:14:23.702Z,5.40
2018-01-28T13:16:58.293Z,4.65
2018-01-28T13:19:34.426Z,7.55
2018-01-28T13:22:09.965Z,6.00
2018-01-28T13:24:44.344Z,4.60
2018-01-28T13:27:18.250Z,3.58
2018-01-28T13:29:53.003Z,3.85
2018-01-28T13:32:27.038Z,4.87
2018-01-28T13:35:02.007Z,5.50
2018-01-28T13:37:35.854Z,2.35
2018-01-28T13:40:10.175Z,3.28
2018-01-28T13:42:45.769Z,6.28
2018-01-28T13:45:22.158Z,4.53
2018-01-28T13:47:57.812Z,4.78
2018-01-28T13:50:31.529Z,4.30
2018-01-28T13:53:05.860Z,7.05
2018-01-28T13:55:39.676Z,5.22
2018-01-28T13:58:13.349Z,4.78
2018-01-28T14:00:47.047Z,5.65
2018-01-28T14:03:20.855Z,3.30
2018-01-28T14:05:54.504Z,4.95
2018-01-28T14:08:28.268Z,6.60
2018-01-28T14:11:01.970Z,5.80
2018-01-28T14:13:35.908Z,4.00
2018-01-28T14:16:09.645Z,2.28
2018-01-28T14:18:43.462Z,5.20
2018-01-28T14:21:17.176Z,5.20
2018-01-28T14:23:51.656Z,5.32
2018-01-28T14:26:25.275Z,4.07
2018-01-28T14:28:58.892Z,4.95
2018-01-28T14:31:32.556Z,2.83
2018-01-28T14:34:06.381Z,2.87
2018-01-28T14:36:40.092Z,2.53
2018-01-28T14:39:13.788Z,4.37
2018-01-28T14:41:49.338Z,2.87
2018-01-28T14:44:23.251Z,1.90
2018-01-28T14:46:57.402Z,4.03
2018-01-28T14:49:31.979Z,4.05
2018-01-28T14:52:07.488Z,3.20
2018-01-28T14:54:42.249Z,5.07
2018-01-28T14:57:16.056Z,3.42
2018-01-28T14:59:49.795Z,3.60
2018-01-28T15:02:23.670Z,2.20
2018-01-28T15:04:58.235Z,1.77
2018-01-28T15:07:31.995Z,3.95
2018-01-28T15:10:05.677Z,3.28
2018-01-28T15:12:39.359Z,3.40
2018-01-28T15:15:13.218Z,2.25
2018-01-28T15:17:48.740Z,4.28
2018-01-28T15:20:22.521Z,1.77
2018-01-28T15:22:56.369Z,2.50
2018-01-28T15:25:30.666Z,2.35
2018-01-28T15:28:05.032Z,3.53
2018-01-28T15:30:39.238Z,2.72
2018-01-28T15:33:12.992Z,1.85
2018-01-28T15:35:49.234Z,1.90
2018-01-28T15:38:23.772Z,2.10
2018-01-28T15:40:59.586Z,2.67
2018-01-28T15:43:33.168Z,2.10
2018-01-28T15:46:06.931Z,5.22
2018-01-28T15:48:41.709Z,1.85
2018-01-28T15:51:15.422Z,2.70
2018-01-28T15:53:49.207Z,3.20
2018-01-28T15:56:22.928Z,3.80
2018-01-28T15:58:57.024Z,2.33
2018-01-28T16:01:30.941Z,3.87
2018-01-28T16:04:04.843Z,3.17
2018-01-28T16:06:38.728Z,2.97
2018-01-28T16:09:12.553Z,6.30
2018-01-28T16:11:46.340Z,3.78
2018-01-28T16:14:19.975Z,4.00
2018-01-28T16:16:55.652Z,8.75
2018-01-28T16:19:29.367Z,2.25
2018-01-28T16:22:03.103Z,5.55
2018-01-28T16:24:37.622Z,6.22
2018-01-28T16:27:11.397Z,5.25
2018-01-28T16:29:45.785Z,4.25
2018-01-28T16:32:19.588Z,4.35
2018-01-28T16:34:53.367Z,6.05
2018-01-28T16:37:27.259Z,6.90
2018-01-28T16:40:01.056Z,6.03
2018-01-28T16:42:34.855Z,8.00
2018-01-28T16:45:09.276Z,4.22
2018-01-28T16:47:44.117Z,11.73
2018-01-28T16:50:17.929Z,6.05
2018-01-28T16:52:52.093Z,4.10
2018-01-28T16:55:25.857Z,4.32
2018-01-28T16:57:59.663Z,6.45
2018-01-28T17:00:33.980Z,5.15
2018-01-28T17:03:07.686Z,5.65
2018-01-28T17:05:42.930Z,6.18
2018-01-28T17:08:16.632Z,7.97
2018-01-28T17:10:50.441Z,7.25
2018-01-28T17:13:24.254Z,3.53
2018-01-28T17:15:58.743Z,8.75
2018-01-28T17:18:33.281Z,9.40
2018-01-28T17:21:07.133Z,7.70
2018-01-28T17:23:40.916Z,8.27
2018-01-28T17:26:14.748Z,11.90
2018-01-28T17:28:48.431Z,6.10
2018-01-28T17:31:22.916Z,5.87
2018-01-28T17:33:56.638Z,7.72
2018-01-28T17:36:30.495Z,9.82
2018-01-28T17:39:04.266Z,6.85
2018-01-28T17:41:37.910Z,8.00
2018-01-28T17:44:12.444Z,8.30
2018-01-28T17:46:47.075Z,7.97
2018-01-28T17:49:20.846Z,9.77
2018-01-28T17:51:54.585Z,7.85
2018-01-28T17:54:29.140Z,4.82
2018-01-28T17:57:02.953Z,8.00
2018-01-28T17:59:36.733Z,6.15
2018-01-28T18:02:10.358Z,3.58
2018-01-28T18:04:44.207Z,9.57
2018-01-28T18:07:18.037Z,5.30
2018-01-28T18:09:51.779Z,9.65
2018-01-28T18:12:26.406Z,6.57
2018-01-28T18:15:00.153Z,11.23
2018-01-28T18:17:34.582Z,5.05
2018-01-28T18:20:08.282Z,5.80
2018-01-28T18:22:41.932Z,8.07
2018-01-28T18:25:16.467Z,9.93
2018-01-28T18:27:50.544Z,8.75
2018-01-28T18:30:25.038Z,9.18
2018-01-28T18:32:58.647Z,4.47
2018-01-28T18:35:32.314Z,3.62
2018-01-28T18:38:06.008Z,13.25
2018-01-28T18:40:39.805Z,7.12
2018-01-28T18:43:13.568Z,10.77
2018-01-28T18:45:47.351Z,8.70
2018-01-28T18:48:23.470Z,7.78
2018-01-28T18:50:58.043Z,9.88
2018-01-28T18:53:31.884Z,12.80
2018-01-28T18:56:05.468Z,7.62
2018-01-28T18:58:39.162Z,9.00
2018-01-28T19:01:12.928Z,10.43
2018-01-28T19:03:47.468Z,10.07
2018-01-28T19:06:21.240Z,7.20
2018-01-28T19:08:55.101Z,4.45
2018-01-28T19:11:28.788Z,6.32
2018-01-28T19:14:02.717Z,6.70
2018-01-28T19:16:36.478Z,11.12
2018-01-28T19:19:10.289Z,3.92
2018-01-28T19:21:44.042Z,11.10
2018-01-28T19:24:17.759Z,5.85
2018-01-28T19:26:51.631Z,8.15
2018-01-28T19:29:25.352Z,8.98
2018-01-28T19:31:59.118Z,9.45
2018-01-28T19:34:33.127Z,14.80
2018-01-28T19:37:07.050Z,4.93
2018-01-28T19:39:40.744Z,11.90
2018-01-28T19:42:14.540Z,12.00
2018-01-28T19:44:48.353Z,5.90
2018-01-28T19:47:22.099Z,9.75
2018-01-28T19:49:55.884Z,6.78
2018-01-28T19:52:29.524Z,17.33
2018-01-28T19:55:03.354Z,16.35
2018-01-28T19:57:37.144Z,9.30
2018-01-28T20:00:10.838Z,4.07
2018-01-28T20:02:44.647Z,8.77
2018-01-28T20:05:18.479Z,15.20
2018-01-28T20:07:52.257Z,12.68
2018-01-28T20:10:26.837Z,7.03
2018-01-28T20:13:00.683Z,10.13
2018-01-28T20:15:34.393Z,12.20
2018-01-28T20:18:08.218Z,4.20
2018-01-28T20:20:42.741Z,10.45
2018-01-28T20:23:16.580Z,13.65
2018-01-28T20:25:50.309Z,7.45
2018-01-28T20:28:24.063Z,10.75
2018-01-28T20:30:59.524Z,14.60
2018-01-28T20:33:33.972Z,6.57
2018-01-28T20:36:08.453Z,7.00
2018-01-28T20:38:42.236Z,5.43
2018-01-28T20:41:15.863Z,8.52
2018-01-28T20:43:49.712Z,9.52
2018-01-28T20:46:23.443Z,7.70
2018-01-28T20:48:57.083Z,14.18
2018-01-28T20:51:30.825Z,7.37
2018-01-28T20:54:04.597Z,8.70
2018-01-28T20:56:38.258Z,11.18
2018-01-28T20:59:12.002Z,8.02
2018-01-28T21:01:45.727Z,10.38
2018-01-28T21:04:19.448Z,10.65
2018-01-28T21:06:53.124Z,10.63
2018-01-28T21:09:26.810Z,12.02
2018-01-28T21:12:00.603Z,7.60
2018-01-28T21:14:35.105Z,10.05
2018-01-28T21:17:08.914Z,8.40
2018-01-28T21:19:42.677Z,4.40
2018-01-28T21:22:16.388Z,12.48
2018-01-28T21:24:51.078Z,12.60
2018-01-28T21:27:25.575Z,9.23
2018-01-28T21:29:59.961Z,12.37
2018-01-28T21:32:34.618Z,5.28
2018-01-28T21:35:08.228Z,10.52
2018-01-28T21:37:42.131Z,8.10
2018-01-28T21:40:16.958Z,5.72
2018-01-28T21:42:50.901Z,6.62
2018-01-28T21:45:25.429Z,7.15
2018-01-28T21:47:59.188Z,6.10
2018-01-28T21:50:32.915Z,10.30
2018-01-28T21:53:06.836Z,5.07
2018-01-28T21:55:41.414Z,8.27
2018-01-28T21:58:16.421Z,4.68
2018-01-28T22:00:52.690Z,6.28
2018-01-28T22:03:26.333Z,7.72
2018-01-28T22:05:59.965Z,7.32
2018-01-28T22:08:33.653Z,9.27
2018-01-28T22:11:08.291Z,8.65
2018-01-28T22:13:42.161Z,7.68
2018-01-28T22:16:15.801Z,7.03
2018-01-28T22:18:50.186Z,6.87
2018-01-28T22:21:24.031Z,3.03
2018-01-28T22:23:58.492Z,2.87
2018-01-28T22:26:32.286Z,4.07
2018-01-28T22:29:05.907Z,7.35
2018-01-28T22:31:39.582Z,5.82
2018-01-28T22:34:13.392Z,3.05
2018-01-28T22:36:47.178Z,5.95
2018-01-28T22:39:21.624Z,9.05
2018-01-28T22:41:56.157Z,5.32
2018-01-28T22:44:30.034Z,5.60
2018-01-28T22:47:05.424Z,3.20
2018-01-28T22:49:39.981Z,6.60
2018-01-28T22:52:13.869Z,6.43
2018-01-28T22:54:49.639Z,5.60
2018-01-28T22:57:23.514Z,5.20
2018-01-28T22:59:59.689Z,3.45
2018-01-28T23:02:33.634Z,6.35
2018-01-28T23:05:08.434Z,4.65
2018-01-28T23:07:42.196Z,4.68
2018-01-28T23:10:16.982Z,2.35
2018-01-28T23:12:52.195Z,2.00
2018-01-28T23:15:25.832Z,1.65
2018-01-28T23:18:00.815Z,1.30
2018-01-28T23:20:34.392Z,4.78
2018-01-28T23:23:08.113Z,6.35
2018-01-28T23:25:41.770Z,3.58
2018-01-28T23:28:15.436Z,5.50
2018-01-28T23:30:49.193Z,4.18
2018-01-28T23:33:22.945Z,5.30
2018-01-28T23:35:56.699Z,3.22
2018-01-28T23:38:30.520Z,6.47
2018-01-28T23:41:04.449Z,3.45
2018-01-28T23:43:38.276Z,3.90
2018-01-28T23:46:11.995Z,6.03
2018-01-28T23:48:45.791Z,4.45
2018-01-28T23:51:20.346Z,3.08
2018-01-28T23:53:54.188Z,4.70
2018-01-28T23:56:27.843Z,4.30
2018-01-28T23:59:01.685Z,4.93
